Terminal Aerodrome Forecast
Issued by NWS Charleston, WV

Current Version | Previous Version | Graphics & Text | Print | Product List | Glossary On
Versions: 1 2 3 4 5 6 7 8 9 10 11 12 13 14 15 16 17 18 19 20 21 22 23 24
000
FTUS41 KRLX 190905 AAA
TAFPKB
TAF AMD
KPKB 190905Z 1909/2006 18007KT P6SM OVC030 WS020/20045KT
     FM191100 18007G15KT P6SM -RA OVC025
     FM191500 20009G15KT P6SM BKN015
     FM191900 21009G15KT P6SM BKN040
     FM200100 19006KT P6SM BKN100=

USA.gov is the U.S. government's official web portal to all federal, state and local government web resources and services.